sensor_id;sensor_type;location;lat;lon;timestamp;P1;durP1;ratioP1;P2;durP2;ratioP2
6663;SDS011;58749;48.022;10.922;2022-11-13T00:01:07;84.40;;;9.75;;
6663;SDS011;58749;48.022;10.922;2022-11-13T00:03:36;107.70;;;9.48;;
6663;SDS011;58749;48.022;10.922;2022-11-13T00:06:04;117.05;;;9.05;;
6663;SDS011;58749;48.022;10.922;2022-11-13T00:08:34;111.60;;;9.55;;
6663;SDS011;58749;48.022;10.922;2022-11-13T00:11:03;135.70;;;11.98;;
6663;SDS011;58749;48.022;10.922;2022-11-13T00:13:32;125.10;;;11.52;;
6663;SDS011;58749;48.022;10.922;2022-11-13T00:16:01;160.68;;;11.18;;
6663;SDS011;58749;48.022;10.922;2022-11-13T00:18:32;116.13;;;11.23;;
6663;SDS011;58749;48.022;10.922;2022-11-13T00:21:04;171.57;;;13.15;;
6663;SDS011;58749;48.022;10.922;2022-11-13T00:23:35;141.82;;;11.15;;
6663;SDS011;58749;48.022;10.922;2022-11-13T00:26:04;240.80;;;14.35;;
6663;SDS011;58749;48.022;10.922;2022-11-13T00:28:33;242.48;;;14.07;;
6663;SDS011;58749;48.022;10.922;2022-11-13T00:31:01;249.77;;;14.20;;
6663;SDS011;58749;48.022;10.922;2022-11-13T00:33:30;250.45;;;13.93;;
6663;SDS011;58749;48.022;10.922;2022-11-13T00:36:19;242.60;;;14.25;;
6663;SDS011;58749;48.022;10.922;2022-11-13T00:38:53;206.90;;;14.90;;
6663;SDS011;58749;48.022;10.922;2022-11-13T00:41:21;226.48;;;14.85;;
6663;SDS011;58749;48.022;10.922;2022-11-13T00:43:50;123.72;;;11.20;;
6663;SDS011;58749;48.022;10.922;2022-11-13T00:46:18;192.73;;;12.68;;
6663;SDS011;58749;48.022;10.922;2022-11-13T00:48:46;197.75;;;13.98;;
6663;SDS011;58749;48.022;10.922;2022-11-13T00:51:14;179.93;;;13.57;;
6663;SDS011;58749;48.022;10.922;2022-11-13T00:53:44;271.00;;;15.38;;
6663;SDS011;58749;48.022;10.922;2022-11-13T00:56:14;268.33;;;15.18;;
6663;SDS011;58749;48.022;10.922;2022-11-13T00:58:42;228.55;;;13.80;;
6663;SDS011;58749;48.022;10.922;2022-11-13T01:01:11;220.88;;;14.05;;
6663;SDS011;58749;48.022;10.922;2022-11-13T01:03:40;298.88;;;16.08;;
6663;SDS011;58749;48.022;10.922;2022-11-13T01:06:10;233.05;;;12.68;;
6663;SDS011;58749;48.022;10.922;2022-11-13T01:08:39;231.38;;;15.02;;
6663;SDS011;58749;48.022;10.922;2022-11-13T01:11:08;299.65;;;18.30;;
6663;SDS011;58749;48.022;10.922;2022-11-13T01:13:39;204.38;;;13.20;;
6663;SDS011;58749;48.022;10.922;2022-11-13T01:16:08;185.32;;;14.85;;
6663;SDS011;58749;48.022;10.922;2022-11-13T01:18:37;173.07;;;11.55;;
6663;SDS011;58749;48.022;10.922;2022-11-13T01:21:07;167.68;;;13.35;;
6663;SDS011;58749;48.022;10.922;2022-11-13T01:23:36;135.13;;;13.80;;
6663;SDS011;58749;48.022;10.922;2022-11-13T01:26:05;132.30;;;11.77;;
6663;SDS011;58749;48.022;10.922;2022-11-13T01:28:35;144.75;;;13.52;;
6663;SDS011;58749;48.022;10.922;2022-11-13T01:31:05;128.38;;;12.20;;
6663;SDS011;58749;48.022;10.922;2022-11-13T01:33:34;189.95;;;13.45;;
6663;SDS011;58749;48.022;10.922;2022-11-13T01:36:03;216.27;;;14.27;;
6663;SDS011;58749;48.022;10.922;2022-11-13T01:38:33;211.68;;;13.73;;
6663;SDS011;58749;48.022;10.922;2022-11-13T01:41:03;182.57;;;12.52;;
6663;SDS011;58749;48.022;10.922;2022-11-13T01:43:32;232.57;;;14.98;;
6663;SDS011;58749;48.022;10.922;2022-11-13T01:46:06;265.40;;;15.63;;
6663;SDS011;58749;48.022;10.922;2022-11-13T01:48:40;172.50;;;14.02;;
6663;SDS011;58749;48.022;10.922;2022-11-13T01:51:10;342.48;;;17.95;;
6663;SDS011;58749;48.022;10.922;2022-11-13T01:53:43;333.30;;;18.75;;
6663;SDS011;58749;48.022;10.922;2022-11-13T01:56:13;224.85;;;16.25;;
6663;SDS011;58749;48.022;10.922;2022-11-13T01:58:44;145.30;;;13.57;;
6663;SDS011;58749;48.022;10.922;2022-11-13T02:01:18;344.88;;;18.25;;
6663;SDS011;58749;48.022;10.922;2022-11-13T02:03:47;343.27;;;20.42;;
6663;SDS011;58749;48.022;10.922;2022-11-13T02:06:15;249.88;;;16.55;;
6663;SDS011;58749;48.022;10.922;2022-11-13T02:08:43;309.85;;;19.17;;
6663;SDS011;58749;48.022;10.922;2022-11-13T02:11:12;224.38;;;15.75;;
6663;SDS011;58749;48.022;10.922;2022-11-13T02:13:40;258.23;;;16.80;;
6663;SDS011;58749;48.022;10.922;2022-11-13T02:16:09;175.70;;;13.85;;
6663;SDS011;58749;48.022;10.922;2022-11-13T02:18:39;224.38;;;16.67;;
6663;SDS011;58749;48.022;10.922;2022-11-13T02:21:11;210.18;;;18.13;;
6663;SDS011;58749;48.022;10.922;2022-11-13T02:23:49;238.32;;;18.10;;
6663;SDS011;58749;48.022;10.922;2022-11-13T02:26:25;226.98;;;15.93;;
6663;SDS011;58749;48.022;10.922;2022-11-13T02:28:55;115.38;;;12.57;;
6663;SDS011;58749;48.022;10.922;2022-11-13T02:31:23;281.17;;;16.65;;
6663;SDS011;58749;48.022;10.922;2022-11-13T02:33:51;205.63;;;14.43;;
6663;SDS011;58749;48.022;10.922;2022-11-13T02:36:20;163.40;;;14.13;;
6663;SDS011;58749;48.022;10.922;2022-11-13T02:38:51;155.85;;;15.18;;
6663;SDS011;58749;48.022;10.922;2022-11-13T02:41:22;219.30;;;15.93;;
6663;SDS011;58749;48.022;10.922;2022-11-13T02:43:52;194.95;;;15.73;;
6663;SDS011;58749;48.022;10.922;2022-11-13T02:46:20;248.63;;;17.08;;
6663;SDS011;58749;48.022;10.922;2022-11-13T02:48:48;179.05;;;12.85;;
6663;SDS011;58749;48.022;10.922;2022-11-13T02:51:16;188.32;;;17.10;;
6663;SDS011;58749;48.022;10.922;2022-11-13T02:53:44;228.05;;;16.50;;
6663;SDS011;58749;48.022;10.922;2022-11-13T02:56:12;185.18;;;12.93;;
6663;SDS011;58749;48.022;10.922;2022-11-13T02:58:42;129.02;;;11.80;;
6663;SDS011;58749;48.022;10.922;2022-11-13T03:01:10;162.27;;;15.57;;
6663;SDS011;58749;48.022;10.922;2022-11-13T03:03:38;217.82;;;15.30;;
6663;SDS011;58749;48.022;10.922;2022-11-13T03:06:23;115.90;;;12.00;;
6663;SDS011;58749;48.022;10.922;2022-11-13T03:08:51;293.08;;;18.33;;
6663;SDS011;58749;48.022;10.922;2022-11-13T03:11:19;181.30;;;13.98;;
6663;SDS011;58749;48.022;10.922;2022-11-13T03:13:48;252.82;;;16.20;;
6663;SDS011;58749;48.022;10.922;2022-11-13T03:16:17;250.30;;;20.13;;
6663;SDS011;58749;48.022;10.922;2022-11-13T03:18:45;168.68;;;13.68;;
6663;SDS011;58749;48.022;10.922;2022-11-13T03:21:13;182.70;;;14.43;;
6663;SDS011;58749;48.022;10.922;2022-11-13T03:23:42;219.45;;;13.70;;
6663;SDS011;58749;48.022;10.922;2022-11-13T03:26:12;340.70;;;22.77;;
6663;SDS011;58749;48.022;10.922;2022-11-13T03:28:41;267.30;;;18.48;;
6663;SDS011;58749;48.022;10.922;2022-11-13T03:31:11;266.55;;;18.42;;
6663;SDS011;58749;48.022;10.922;2022-11-13T03:33:39;179.48;;;12.68;;
6663;SDS011;58749;48.022;10.922;2022-11-13T03:36:07;265.80;;;15.75;;
6663;SDS011;58749;48.022;10.922;2022-11-13T03:38:36;227.20;;;17.27;;
6663;SDS011;58749;48.022;10.922;2022-11-13T03:41:04;233.38;;;15.30;;
6663;SDS011;58749;48.022;10.922;2022-11-13T03:43:32;265.40;;;16.63;;
6663;SDS011;58749;48.022;10.922;2022-11-13T03:46:00;258.75;;;16.50;;
6663;SDS011;58749;48.022;10.922;2022-11-13T03:48:30;92.10;;;10.30;;
6663;SDS011;58749;48.022;10.922;2022-11-13T03:50:58;174.20;;;13.25;;
6663;SDS011;58749;48.022;10.922;2022-11-13T03:53:26;174.93;;;13.93;;
6663;SDS011;58749;48.022;10.922;2022-11-13T03:55:54;198.55;;;14.35;;
6663;SDS011;58749;48.022;10.922;2022-11-13T03:58:22;212.95;;;14.95;;
6663;SDS011;58749;48.022;10.922;2022-11-13T04:00:52;160.15;;;11.90;;
6663;SDS011;58749;48.022;10.922;2022-11-13T04:03:21;186.10;;;12.32;;
6663;SDS011;58749;48.022;10.922;2022-11-13T04:05:51;172.57;;;13.13;;
6663;SDS011;58749;48.022;10.922;2022-11-13T04:08:19;112.57;;;11.02;;
6663;SDS011;58749;48.022;10.922;2022-11-13T04:10:47;215.23;;;14.98;;
6663;SDS011;58749;48.022;10.922;2022-11-13T04:13:16;215.57;;;14.85;;
6663;SDS011;58749;48.022;10.922;2022-11-13T04:15:44;170.77;;;12.55;;
6663;SDS011;58749;48.022;10.922;2022-11-13T04:18:12;181.05;;;13.02;;
6663;SDS011;58749;48.022;10.922;2022-11-13T04:20:40;242.35;;;17.02;;
6663;SDS011;58749;48.022;10.922;2022-11-13T04:23:09;83.78;;;10.23;;
6663;SDS011;58749;48.022;10.922;2022-11-13T04:25:39;341.35;;;17.27;;
6663;SDS011;58749;48.022;10.922;2022-11-13T04:28:07;215.07;;;13.95;;
6663;SDS011;58749;48.022;10.922;2022-11-13T04:30:36;161.68;;;12.30;;
6663;SDS011;58749;48.022;10.922;2022-11-13T04:33:04;190.75;;;12.38;;
6663;SDS011;58749;48.022;10.922;2022-11-13T04:35:33;209.15;;;13.70;;
6663;SDS011;58749;48.022;10.922;2022-11-13T04:38:01;139.90;;;11.07;;
6663;SDS011;58749;48.022;10.922;2022-11-13T04:40:30;121.68;;;11.25;;
6663;SDS011;58749;48.022;10.922;2022-11-13T04:42:59;131.43;;;10.60;;
6663;SDS011;58749;48.022;10.922;2022-11-13T04:45:26;170.95;;;12.02;;
6663;SDS011;58749;48.022;10.922;2022-11-13T04:47:54;154.68;;;11.70;;
6663;SDS011;58749;48.022;10.922;2022-11-13T04:50:22;183.80;;;13.95;;
6663;SDS011;58749;48.022;10.922;2022-11-13T04:52:51;263.27;;;13.15;;
6663;SDS011;58749;48.022;10.922;2022-11-13T04:55:19;82.90;;;8.48;;
6663;SDS011;58749;48.022;10.922;2022-11-13T04:57:48;177.05;;;12.35;;
6663;SDS011;58749;48.022;10.922;2022-11-13T05:00:17;94.03;;;11.48;;
6663;SDS011;58749;48.022;10.922;2022-11-13T05:02:45;182.68;;;13.18;;
6663;SDS011;58749;48.022;10.922;2022-11-13T05:05:13;170.30;;;11.70;;
6663;SDS011;58749;48.022;10.922;2022-11-13T05:07:41;113.05;;;10.13;;
6663;SDS011;58749;48.022;10.922;2022-11-13T05:10:09;115.05;;;10.48;;
6663;SDS011;58749;48.022;10.922;2022-11-13T05:12:37;139.77;;;11.25;;
6663;SDS011;58749;48.022;10.922;2022-11-13T05:15:07;184.38;;;10.88;;
6663;SDS011;58749;48.022;10.922;2022-11-13T05:17:35;148.65;;;10.65;;
6663;SDS011;58749;48.022;10.922;2022-11-13T05:20:04;204.85;;;12.98;;
6663;SDS011;58749;48.022;10.922;2022-11-13T05:22:33;211.38;;;12.57;;
6663;SDS011;58749;48.022;10.922;2022-11-13T05:25:01;209.60;;;12.73;;
6663;SDS011;58749;48.022;10.922;2022-11-13T05:27:29;244.07;;;13.50;;
6663;SDS011;58749;48.022;10.922;2022-11-13T05:29:57;237.23;;;14.27;;
6663;SDS011;58749;48.022;10.922;2022-11-13T05:32:26;212.32;;;14.23;;
6663;SDS011;58749;48.022;10.922;2022-11-13T05:34:54;259.95;;;14.77;;
6663;SDS011;58749;48.022;10.922;2022-11-13T05:37:23;207.90;;;14.75;;
6663;SDS011;58749;48.022;10.922;2022-11-13T05:39:51;218.50;;;14.65;;
6663;SDS011;58749;48.022;10.922;2022-11-13T05:42:19;229.57;;;14.05;;
6663;SDS011;58749;48.022;10.922;2022-11-13T05:44:47;255.65;;;14.57;;
6663;SDS011;58749;48.022;10.922;2022-11-13T05:47:15;230.55;;;13.27;;
6663;SDS011;58749;48.022;10.922;2022-11-13T05:49:45;240.88;;;14.38;;
6663;SDS011;58749;48.022;10.922;2022-11-13T05:52:13;222.18;;;14.10;;
6663;SDS011;58749;48.022;10.922;2022-11-13T05:54:41;140.70;;;12.68;;
6663;SDS011;58749;48.022;10.922;2022-11-13T05:57:09;190.60;;;12.98;;
6663;SDS011;58749;48.022;10.922;2022-11-13T05:59:37;238.80;;;13.60;;
6663;SDS011;58749;48.022;10.922;2022-11-13T06:02:05;156.60;;;11.38;;
6663;SDS011;58749;48.022;10.922;2022-11-13T06:04:34;146.98;;;11.73;;
6663;SDS011;58749;48.022;10.922;2022-11-13T06:07:04;168.90;;;10.85;;
6663;SDS011;58749;48.022;10.922;2022-11-13T06:09:32;154.88;;;12.23;;
6663;SDS011;58749;48.022;10.922;2022-11-13T06:12:02;127.85;;;10.63;;
6663;SDS011;58749;48.022;10.922;2022-11-13T06:14:31;114.78;;;10.50;;
6663;SDS011;58749;48.022;10.922;2022-11-13T06:16:59;86.80;;;10.60;;
6663;SDS011;58749;48.022;10.922;2022-11-13T06:19:27;83.10;;;10.10;;
6663;SDS011;58749;48.022;10.922;2022-11-13T06:21:55;89.60;;;8.82;;
6663;SDS011;58749;48.022;10.922;2022-11-13T06:24:25;125.63;;;10.40;;
6663;SDS011;58749;48.022;10.922;2022-11-13T06:26:53;143.18;;;11.00;;
6663;SDS011;58749;48.022;10.922;2022-11-13T06:29:21;133.52;;;10.13;;
6663;SDS011;58749;48.022;10.922;2022-11-13T06:31:49;68.47;;;8.07;;
6663;SDS011;58749;48.022;10.922;2022-11-13T06:34:17;74.07;;;10.50;;
6663;SDS011;58749;48.022;10.922;2022-11-13T06:36:45;124.70;;;11.82;;
6663;SDS011;58749;48.022;10.922;2022-11-13T06:39:13;157.75;;;12.35;;
6663;SDS011;58749;48.022;10.922;2022-11-13T06:41:43;152.68;;;11.02;;
6663;SDS011;58749;48.022;10.922;2022-11-13T06:44:11;134.65;;;12.55;;
6663;SDS011;58749;48.022;10.922;2022-11-13T06:46:39;115.68;;;10.57;;
6663;SDS011;58749;48.022;10.922;2022-11-13T06:49:07;178.30;;;10.85;;
6663;SDS011;58749;48.022;10.922;2022-11-13T06:51:35;103.07;;;11.02;;
6663;SDS011;58749;48.022;10.922;2022-11-13T06:54:03;182.98;;;26.77;;
6663;SDS011;58749;48.022;10.922;2022-11-13T06:56:32;160.48;;;12.95;;
6663;SDS011;58749;48.022;10.922;2022-11-13T06:59:01;152.35;;;12.95;;
6663;SDS011;58749;48.022;10.922;2022-11-13T07:01:33;129.40;;;11.98;;
6663;SDS011;58749;48.022;10.922;2022-11-13T07:04:02;146.10;;;14.30;;
6663;SDS011;58749;48.022;10.922;2022-11-13T07:06:31;164.23;;;16.30;;
6663;SDS011;58749;48.022;10.922;2022-11-13T07:09:05;246.27;;;18.38;;
6663;SDS011;58749;48.022;10.922;2022-11-13T07:11:33;146.88;;;15.05;;
6663;SDS011;58749;48.022;10.922;2022-11-13T07:14:05;129.18;;;13.45;;
6663;SDS011;58749;48.022;10.922;2022-11-13T07:16:33;171.98;;;12.43;;
6663;SDS011;58749;48.022;10.922;2022-11-13T07:19:21;167.07;;;16.50;;
6663;SDS011;58749;48.022;10.922;2022-11-13T07:21:49;192.77;;;14.85;;
6663;SDS011;58749;48.022;10.922;2022-11-13T07:24:17;84.22;;;10.88;;
6663;SDS011;58749;48.022;10.922;2022-11-13T07:26:45;111.93;;;12.15;;
6663;SDS011;58749;48.022;10.922;2022-11-13T07:29:14;89.10;;;7.82;;
6663;SDS011;58749;48.022;10.922;2022-11-13T07:31:42;174.65;;;13.00;;
6663;SDS011;58749;48.022;10.922;2022-11-13T07:34:10;120.65;;;10.48;;
6663;SDS011;58749;48.022;10.922;2022-11-13T07:36:40;79.57;;;9.23;;
6663;SDS011;58749;48.022;10.922;2022-11-13T07:39:07;112.18;;;10.13;;
6663;SDS011;58749;48.022;10.922;2022-11-13T07:41:36;138.25;;;9.35;;
6663;SDS011;58749;48.022;10.922;2022-11-13T07:44:04;160.82;;;12.23;;
6663;SDS011;58749;48.022;10.922;2022-11-13T07:46:36;153.30;;;11.40;;
6663;SDS011;58749;48.022;10.922;2022-11-13T07:49:04;113.88;;;11.63;;
6663;SDS011;58749;48.022;10.922;2022-11-13T07:51:32;152.20;;;10.98;;
6663;SDS011;58749;48.022;10.922;2022-11-13T07:54:01;177.68;;;13.20;;
6663;SDS011;58749;48.022;10.922;2022-11-13T07:56:29;117.85;;;10.38;;
6663;SDS011;58749;48.022;10.922;2022-11-13T07:58:57;116.80;;;10.57;;
6663;SDS011;58749;48.022;10.922;2022-11-13T08:01:25;143.95;;;20.83;;
6663;SDS011;58749;48.022;10.922;2022-11-13T08:03:56;114.10;;;13.02;;
6663;SDS011;58749;48.022;10.922;2022-11-13T08:06:27;114.40;;;11.88;;
6663;SDS011;58749;48.022;10.922;2022-11-13T08:08:55;73.72;;;9.10;;
6663;SDS011;58749;48.022;10.922;2022-11-13T08:11:24;75.13;;;8.45;;
6663;SDS011;58749;48.022;10.922;2022-11-13T08:13:52;104.13;;;9.40;;
6663;SDS011;58749;48.022;10.922;2022-11-13T08:16:20;58.08;;;9.20;;
6663;SDS011;58749;48.022;10.922;2022-11-13T08:18:48;70.47;;;9.32;;
6663;SDS011;58749;48.022;10.922;2022-11-13T08:21:18;55.28;;;8.75;;
6663;SDS011;58749;48.022;10.922;2022-11-13T08:23:47;44.05;;;9.50;;
6663;SDS011;58749;48.022;10.922;2022-11-13T08:26:16;69.00;;;10.13;;
6663;SDS011;58749;48.022;10.922;2022-11-13T08:28:44;142.55;;;11.18;;
6663;SDS011;58749;48.022;10.922;2022-11-13T08:31:13;162.68;;;12.05;;
6663;SDS011;58749;48.022;10.922;2022-11-13T08:33:42;200.30;;;11.50;;
6663;SDS011;58749;48.022;10.922;2022-11-13T08:36:10;54.05;;;9.25;;
6663;SDS011;58749;48.022;10.922;2022-11-13T08:38:40;88.40;;;9.70;;
6663;SDS011;58749;48.022;10.922;2022-11-13T08:41:08;146.77;;;11.40;;
6663;SDS011;58749;48.022;10.922;2022-11-13T08:43:36;105.65;;;11.38;;
6663;SDS011;58749;48.022;10.922;2022-11-13T08:46:05;119.53;;;10.32;;
6663;SDS011;58749;48.022;10.922;2022-11-13T08:48:33;87.45;;;9.95;;
6663;SDS011;58749;48.022;10.922;2022-11-13T08:51:03;186.30;;;12.18;;
6663;SDS011;58749;48.022;10.922;2022-11-13T08:53:31;67.78;;;9.10;;
6663;SDS011;58749;48.022;10.922;2022-11-13T08:56:01;85.72;;;10.00;;
6663;SDS011;58749;48.022;10.922;2022-11-13T08:58:30;83.63;;;9.40;;
6663;SDS011;58749;48.022;10.922;2022-11-13T09:00:58;30.10;;;6.93;;
6663;SDS011;58749;48.022;10.922;2022-11-13T09:03:26;86.57;;;9.15;;
6663;SDS011;58749;48.022;10.922;2022-11-13T09:05:55;73.88;;;8.85;;
6663;SDS011;58749;48.022;10.922;2022-11-13T09:08:23;42.90;;;7.95;;
6663;SDS011;58749;48.022;10.922;2022-11-13T09:10:51;22.60;;;7.20;;
6663;SDS011;58749;48.022;10.922;2022-11-13T09:13:21;47.70;;;7.25;;
6663;SDS011;58749;48.022;10.922;2022-11-13T09:15:49;18.55;;;7.30;;
6663;SDS011;58749;48.022;10.922;2022-11-13T09:18:17;28.75;;;7.30;;
6663;SDS011;58749;48.022;10.922;2022-11-13T09:20:45;27.83;;;7.13;;
6663;SDS011;58749;48.022;10.922;2022-11-13T09:23:13;52.13;;;7.55;;
6663;SDS011;58749;48.022;10.922;2022-11-13T09:25:41;39.95;;;7.32;;
6663;SDS011;58749;48.022;10.922;2022-11-13T09:28:09;58.42;;;7.90;;
6663;SDS011;58749;48.022;10.922;2022-11-13T09:30:39;16.85;;;7.03;;
6663;SDS011;58749;48.022;10.922;2022-11-13T09:33:08;45.08;;;7.70;;
6663;SDS011;58749;48.022;10.922;2022-11-13T09:35:40;52.45;;;8.88;;
6663;SDS011;58749;48.022;10.922;2022-11-13T09:38:11;28.25;;;7.55;;
6663;SDS011;58749;48.022;10.922;2022-11-13T09:40:41;33.75;;;7.40;;
6663;SDS011;58749;48.022;10.922;2022-11-13T09:43:16;11.52;;;7.45;;
6663;SDS011;58749;48.022;10.922;2022-11-13T09:45:55;11.32;;;6.53;;
6663;SDS011;58749;48.022;10.922;2022-11-13T09:48:29;15.77;;;6.75;;
6663;SDS011;58749;48.022;10.922;2022-11-13T09:51:03;9.82;;;7.05;;
6663;SDS011;58749;48.022;10.922;2022-11-13T09:53:38;7.82;;;6.28;;
6663;SDS011;58749;48.022;10.922;2022-11-13T09:56:10;12.55;;;5.60;;
6663;SDS011;58749;48.022;10.922;2022-11-13T09:58:47;25.70;;;6.72;;
6663;SDS011;58749;48.022;10.922;2022-11-13T10:01:22;25.67;;;6.40;;
6663;SDS011;58749;48.022;10.922;2022-11-13T10:03:54;12.93;;;6.80;;
6663;SDS011;58749;48.022;10.922;2022-11-13T10:06:33;14.98;;;7.53;;
6663;SDS011;58749;48.022;10.922;2022-11-13T10:09:13;28.27;;;8.15;;
6663;SDS011;58749;48.022;10.922;2022-11-13T10:11:49;23.88;;;7.18;;
6663;SDS011;58749;48.022;10.922;2022-11-13T10:14:22;15.07;;;7.43;;
6663;SDS011;58749;48.022;10.922;2022-11-13T10:16:58;18.52;;;7.43;;
6663;SDS011;58749;48.022;10.922;2022-11-13T10:19:32;19.80;;;13.77;;
6663;SDS011;58749;48.022;10.922;2022-11-13T10:22:29;14.52;;;7.18;;
6663;SDS011;58749;48.022;10.922;2022-11-13T10:25:09;10.18;;;7.25;;
6663;SDS011;58749;48.022;10.922;2022-11-13T10:27:39;11.40;;;8.13;;
6663;SDS011;58749;48.022;10.922;2022-11-13T10:30:12;10.15;;;7.55;;
6663;SDS011;58749;48.022;10.922;2022-11-13T10:35:30;13.05;;;8.50;;
6663;SDS011;58749;48.022;10.922;2022-11-13T10:38:15;12.27;;;7.43;;
6663;SDS011;58749;48.022;10.922;2022-11-13T10:40:49;22.55;;;9.30;;
6663;SDS011;58749;48.022;10.922;2022-11-13T10:43:18;24.80;;;8.32;;
6663;SDS011;58749;48.022;10.922;2022-11-13T10:45:55;21.75;;;14.05;;
6663;SDS011;58749;48.022;10.922;2022-11-13T10:48:26;25.60;;;10.50;;
6663;SDS011;58749;48.022;10.922;2022-11-13T10:50:57;21.00;;;13.55;;
6663;SDS011;58749;48.022;10.922;2022-11-13T10:53:45;14.35;;;10.50;;
6663;SDS011;58749;48.022;10.922;2022-11-13T10:56:24;11.77;;;8.35;;
6663;SDS011;58749;48.022;10.922;2022-11-13T10:58:58;9.73;;;7.45;;
6663;SDS011;58749;48.022;10.922;2022-11-13T11:01:28;14.93;;;9.27;;
6663;SDS011;58749;48.022;10.922;2022-11-13T11:03:57;8.57;;;6.75;;
6663;SDS011;58749;48.022;10.922;2022-11-13T11:06:32;9.75;;;7.45;;
6663;SDS011;58749;48.022;10.922;2022-11-13T11:09:22;9.10;;;7.40;;
6663;SDS011;58749;48.022;10.922;2022-11-13T11:12:07;10.30;;;7.88;;
6663;SDS011;58749;48.022;10.922;2022-11-13T11:14:50;8.55;;;6.90;;
6663;SDS011;58749;48.022;10.922;2022-11-13T11:17:28;9.05;;;7.30;;
6663;SDS011;58749;48.022;10.922;2022-11-13T11:20:04;8.77;;;7.20;;
6663;SDS011;58749;48.022;10.922;2022-11-13T11:22:36;10.25;;;7.47;;
6663;SDS011;58749;48.022;10.922;2022-11-13T11:25:09;10.95;;;8.02;;
6663;SDS011;58749;48.022;10.922;2022-11-13T11:27:42;10.32;;;8.25;;
6663;SDS011;58749;48.022;10.922;2022-11-13T11:30:18;9.73;;;7.47;;
6663;SDS011;58749;48.022;10.922;2022-11-13T11:32:49;9.80;;;7.63;;
6663;SDS011;58749;48.022;10.922;2022-11-13T11:35:25;8.85;;;6.80;;
6663;SDS011;58749;48.022;10.922;2022-11-13T11:38:00;8.32;;;7.25;;
6663;SDS011;58749;48.022;10.922;2022-11-13T11:40:33;8.02;;;6.80;;
6663;SDS011;58749;48.022;10.922;2022-11-13T11:43:10;8.95;;;7.25;;
6663;SDS011;58749;48.022;10.922;2022-11-13T11:45:43;8.32;;;7.05;;
6663;SDS011;58749;48.022;10.922;2022-11-13T11:48:13;9.40;;;7.45;;
6663;SDS011;58749;48.022;10.922;2022-11-13T11:50:46;9.73;;;7.85;;
6663;SDS011;58749;48.022;10.922;2022-11-13T11:53:26;10.43;;;7.30;;
6663;SDS011;58749;48.022;10.922;2022-11-13T11:59:04;7.22;;;6.00;;
6663;SDS011;58749;48.022;10.922;2022-11-13T12:01:44;17.05;;;11.75;;
6663;SDS011;58749;48.022;10.922;2022-11-13T12:04:34;8.48;;;6.60;;
6663;SDS011;58749;48.022;10.922;2022-11-13T12:07:19;6.75;;;6.05;;
6663;SDS011;58749;48.022;10.922;2022-11-13T12:09:58;7.90;;;6.38;;
6663;SDS011;58749;48.022;10.922;2022-11-13T12:12:36;15.45;;;6.60;;
6663;SDS011;58749;48.022;10.922;2022-11-13T12:15:14;6.63;;;5.50;;
6663;SDS011;58749;48.022;10.922;2022-11-13T12:17:51;9.85;;;6.40;;
6663;SDS011;58749;48.022;10.922;2022-11-13T12:20:25;7.00;;;6.22;;
6663;SDS011;58749;48.022;10.922;2022-11-13T12:23:04;7.88;;;5.57;;
6663;SDS011;58749;48.022;10.922;2022-11-13T12:25:43;8.52;;;6.97;;
6663;SDS011;58749;48.022;10.922;2022-11-13T12:28:17;7.50;;;6.68;;
6663;SDS011;58749;48.022;10.922;2022-11-13T12:30:54;7.47;;;6.13;;
6663;SDS011;58749;48.022;10.922;2022-11-13T12:33:33;7.72;;;6.53;;
6663;SDS011;58749;48.022;10.922;2022-11-13T12:36:07;8.15;;;6.47;;
6663;SDS011;58749;48.022;10.922;2022-11-13T12:38:40;6.97;;;5.90;;
6663;SDS011;58749;48.022;10.922;2022-11-13T12:41:14;7.18;;;6.20;;
6663;SDS011;58749;48.022;10.922;2022-11-13T12:44:01;7.82;;;6.38;;
6663;SDS011;58749;48.022;10.922;2022-11-13T12:46:41;7.65;;;6.47;;
6663;SDS011;58749;48.022;10.922;2022-11-13T12:49:14;8.63;;;6.90;;
6663;SDS011;58749;48.022;10.922;2022-11-13T12:51:52;8.15;;;5.90;;
6663;SDS011;58749;48.022;10.922;2022-11-13T12:54:27;8.60;;;6.50;;
6663;SDS011;58749;48.022;10.922;2022-11-13T12:57:06;8.02;;;6.55;;
6663;SDS011;58749;48.022;10.922;2022-11-13T12:59:44;9.73;;;7.38;;
6663;SDS011;58749;48.022;10.922;2022-11-13T13:02:19;7.68;;;6.78;;
6663;SDS011;58749;48.022;10.922;2022-11-13T13:05:01;8.23;;;6.73;;
6663;SDS011;58749;48.022;10.922;2022-11-13T13:07:47;7.38;;;6.60;;
6663;SDS011;58749;48.022;10.922;2022-11-13T13:10:33;7.72;;;6.43;;
6663;SDS011;58749;48.022;10.922;2022-11-13T13:13:12;7.80;;;6.82;;
6663;SDS011;58749;48.022;10.922;2022-11-13T13:15:52;9.30;;;7.57;;
6663;SDS011;58749;48.022;10.922;2022-11-13T13:18:26;8.93;;;7.10;;
6663;SDS011;58749;48.022;10.922;2022-11-13T13:20:58;10.63;;;7.20;;
6663;SDS011;58749;48.022;10.922;2022-11-13T13:23:30;9.23;;;7.25;;
6663;SDS011;58749;48.022;10.922;2022-11-13T13:26:05;9.73;;;7.40;;
6663;SDS011;58749;48.022;10.922;2022-11-13T13:28:42;9.18;;;7.47;;
6663;SDS011;58749;48.022;10.922;2022-11-13T13:31:15;8.35;;;7.43;;
6663;SDS011;58749;48.022;10.922;2022-11-13T13:33:55;14.02;;;8.95;;
6663;SDS011;58749;48.022;10.922;2022-11-13T13:36:34;9.35;;;7.63;;
6663;SDS011;58749;48.022;10.922;2022-11-13T13:39:20;9.93;;;8.25;;
6663;SDS011;58749;48.022;10.922;2022-11-13T13:42:03;9.65;;;7.63;;
6663;SDS011;58749;48.022;10.922;2022-11-13T13:44:48;8.23;;;6.88;;
6663;SDS011;58749;48.022;10.922;2022-11-13T13:47:27;8.70;;;7.45;;
6663;SDS011;58749;48.022;10.922;2022-11-13T13:49:58;8.88;;;7.32;;
6663;SDS011;58749;48.022;10.922;2022-11-13T13:52:27;10.77;;;8.70;;
6663;SDS011;58749;48.022;10.922;2022-11-13T13:54:57;9.25;;;7.70;;
6663;SDS011;58749;48.022;10.922;2022-11-13T13:57:29;11.38;;;8.80;;
6663;SDS011;58749;48.022;10.922;2022-11-13T13:59:57;11.82;;;8.75;;
6663;SDS011;58749;48.022;10.922;2022-11-13T14:02:25;13.00;;;8.95;;
6663;SDS011;58749;48.022;10.922;2022-11-13T14:04:54;10.55;;;8.45;;
6663;SDS011;58749;48.022;10.922;2022-11-13T14:07:23;16.50;;;10.68;;
6663;SDS011;58749;48.022;10.922;2022-11-13T14:10:06;9.63;;;6.90;;
6663;SDS011;58749;48.022;10.922;2022-11-13T14:12:42;9.30;;;7.25;;
6663;SDS011;58749;48.022;10.922;2022-11-13T14:15:22;12.90;;;9.00;;
6663;SDS011;58749;48.022;10.922;2022-11-13T14:18:03;11.80;;;8.23;;
6663;SDS011;58749;48.022;10.922;2022-11-13T14:20:35;7.03;;;5.85;;
6663;SDS011;58749;48.022;10.922;2022-11-13T14:23:09;9.73;;;6.32;;
6663;SDS011;58749;48.022;10.922;2022-11-13T14:25:40;6.65;;;5.95;;
6663;SDS011;58749;48.022;10.922;2022-11-13T14:28:15;9.02;;;5.70;;
6663;SDS011;58749;48.022;10.922;2022-11-13T14:30:51;8.15;;;6.80;;
6663;SDS011;58749;48.022;10.922;2022-11-13T14:33:21;6.93;;;6.18;;
6663;SDS011;58749;48.022;10.922;2022-11-13T14:35:54;9.00;;;6.72;;
6663;SDS011;58749;48.022;10.922;2022-11-13T14:38:25;6.97;;;6.13;;
6663;SDS011;58749;48.022;10.922;2022-11-13T14:40:55;8.52;;;6.50;;
6663;SDS011;58749;48.022;10.922;2022-11-13T14:43:26;9.95;;;7.80;;
6663;SDS011;58749;48.022;10.922;2022-11-13T14:45:57;9.85;;;7.95;;
6663;SDS011;58749;48.022;10.922;2022-11-13T14:48:27;9.10;;;7.85;;
6663;SDS011;58749;48.022;10.922;2022-11-13T14:50:57;8.57;;;7.28;;
6663;SDS011;58749;48.022;10.922;2022-11-13T14:53:28;9.60;;;7.80;;